Time;durP1;ratioP1;P1;durP2;ratioP2;P2;SDS_P1;SDS_P2;PMS_P1;PMS_P2;Temp;Humidity;BMP_temperature;BMP_pressure;BME280_temperature;BME280_humidity;BME280_pressure;Samples;Min_cycle;Max_cycle;Signal;HPM_P1;HPM_P2
2023/09/22 00:00:48;;;;;;;12.00;4.00;;;;;;;14.52;88.17;95270.95;110563;1274;22204;-75
2023/09/22 00:03:33;;;;;;;8.80;4.20;;;;;;;14.54;89.11;95269.86;110606;1274;22184;-75
2023/09/22 00:06:02;;;;;;;7.00;4.40;;;;;;;14.59;89.20;95264.02;110549;1274;22862;-75
2023/09/22 00:08:33;;;;;;;10.30;4.70;;;;;;;14.66;89.21;95265.66;110552;1274;22174;-75
2023/09/22 00:11:09;;;;;;;9.50;4.00;;;;;;;14.77;88.98;95269.29;110567;1274;22370;-74
2023/09/22 00:13:41;;;;;;;10.10;4.50;;;;;;;14.91;88.60;95274.58;110540;1274;22159;-75
2023/09/22 00:16:13;;;;;;;9.70;4.60;;;;;;;14.96;87.34;95270.29;110536;1275;22244;-75
2023/09/22 00:18:41;;;;;;;11.10;4.70;;;;;;;14.99;87.47;95271.42;110582;1275;22136;-75
2023/09/22 00:21:12;;;;;;;7.40;3.60;;;;;;;15.02;87.17;95268.98;110515;1274;22112;-75
2023/09/22 00:23:43;;;;;;;7.90;4.20;;;;;;;15.05;87.16;95264.45;110601;1274;22793;-75
2023/09/22 00:26:15;;;;;;;9.10;4.70;;;;;;;15.04;87.00;95258.24;110519;1274;22102;-74
2023/09/22 00:29:07;;;;;;;5.70;4.00;;;;;;;15.05;87.21;95259.48;108310;1274;2898447;-74
2023/09/22 00:31:48;;;;;;;14.10;4.30;;;;;;;15.15;87.25;95264.91;110439;1274;22107;-75
2023/09/22 00:34:19;;;;;;;17.10;4.20;;;;;;;15.18;86.48;95265.66;110546;1274;22194;-75
2023/09/22 00:36:52;;;;;;;9.80;4.10;;;;;;;15.20;86.34;95253.18;110580;1274;22106;-74
2023/09/22 00:39:23;;;;;;;9.50;3.90;;;;;;;15.19;86.16;95249.68;110602;1274;22210;-75
2023/09/22 00:41:58;;;;;;;8.20;4.20;;;;;;;15.12;85.80;95251.39;110611;1274;22181;-75
2023/09/22 00:44:29;;;;;;;10.50;4.50;;;;;;;15.01;86.68;95255.55;110554;1274;22163;-75
2023/09/22 00:46:59;;;;;;;7.70;4.50;;;;;;;15.03;86.91;95259.36;110635;1274;22182;-75
2023/09/22 00:49:30;;;;;;;6.90;4.60;;;;;;;14.98;86.63;95260.81;110578;1274;22142;-75
2023/09/22 00:51:59;;;;;;;11.10;4.80;;;;;;;14.99;87.25;95256.35;110545;1274;22139;-75
2023/09/22 00:54:52;;;;;;;8.50;4.00;;;;;;;15.05;86.97;95265.88;110596;1274;22125;-75
2023/09/22 00:57:21;;;;;;;9.90;4.50;;;;;;;15.03;86.89;95268.95;110549;1274;22286;-74
2023/09/22 00:59:50;;;;;;;10.60;4.70;;;;;;;15.09;87.44;95269.40;110659;1260;22382;-74
2023/09/22 01:02:19;;;;;;;11.30;3.80;;;;;;;15.10;86.81;95265.81;110610;1274;22126;-74
2023/09/22 01:04:47;;;;;;;6.90;3.80;;;;;;;15.04;87.09;95274.94;110521;1274;22165;-74
2023/09/22 01:07:16;;;;;;;9.40;4.70;;;;;;;15.01;87.56;95266.92;110594;1274;22120;-74
2023/09/22 01:09:46;;;;;;;9.90;4.50;;;;;;;15.03;87.42;95261.88;110577;1274;22177;-74
2023/09/22 01:12:17;;;;;;;10.90;4.30;;;;;;;15.09;87.43;95266.56;110621;1274;22284;-75
2023/09/22 01:14:46;;;;;;;10.30;4.70;;;;;;;15.10;87.23;95267.73;110571;1274;22984;-74
2023/09/22 01:17:17;;;;;;;10.10;4.30;;;;;;;15.16;87.72;95263.45;110601;1274;22864;-74
2023/09/22 01:19:46;;;;;;;8.50;4.10;;;;;;;15.20;87.16;95260.30;110499;1274;22950;-75
2023/09/22 01:22:19;;;;;;;12.10;3.70;;;;;;;15.18;87.17;95257.36;110557;1274;22275;-74
2023/09/22 01:24:47;;;;;;;9.70;4.50;;;;;;;15.20;87.76;95265.95;110564;1275;22172;-75
2023/09/22 01:27:16;;;;;;;13.10;4.10;;;;;;;15.23;87.81;95262.10;110582;1274;22213;-75
2023/09/22 01:29:44;;;;;;;8.80;3.90;;;;;;;15.26;87.55;95261.81;110629;1274;22217;-75
2023/09/22 01:32:12;;;;;;;9.90;3.90;;;;;;;15.28;87.77;95257.81;110559;1274;23164;-75
2023/09/22 01:34:43;;;;;;;5.80;3.30;;;;;;;15.31;87.61;95267.40;110615;1274;22903;-75
2023/09/22 01:37:28;;;;;;;9.20;4.30;;;;;;;15.26;87.40;95266.04;110590;1274;22122;-75
2023/09/22 01:39:58;;;;;;;8.40;4.20;;;;;;;15.29;88.13;95265.55;110571;1274;22146;-75
2023/09/22 01:42:26;;;;;;;11.90;4.40;;;;;;;15.33;88.03;95263.42;110616;1274;22236;-75
2023/09/22 01:44:55;;;;;;;14.70;4.40;;;;;;;15.42;88.41;95268.39;110548;1274;22203;-74
2023/09/22 01:47:23;;;;;;;10.50;4.80;;;;;;;15.47;87.69;95268.52;110559;1274;22131;-75
2023/09/22 01:49:52;;;;;;;8.90;4.00;;;;;;;15.46;87.53;95270.48;110411;1274;22185;-75
2023/09/22 01:52:20;;;;;;;7.60;3.90;;;;;;;15.50;87.50;95268.21;110615;1274;23001;-74
2023/09/22 01:54:49;;;;;;;6.10;4.00;;;;;;;15.54;87.50;95267.16;110607;1274;22176;-75
2023/09/22 01:57:19;;;;;;;15.00;4.30;;;;;;;15.48;87.17;95275.38;110577;1274;22157;-75
2023/09/22 01:59:48;;;;;;;10.60;4.20;;;;;;;15.49;87.84;95270.20;110485;1274;22988;-75
2023/09/22 02:02:16;;;;;;;8.20;4.30;;;;;;;15.55;87.90;95269.75;110610;1274;22131;-75
2023/09/22 02:04:46;;;;;;;8.80;4.10;;;;;;;15.59;87.56;95261.08;110580;1274;22194;-74
2023/09/22 02:07:14;;;;;;;7.40;3.50;;;;;;;15.65;87.73;95263.30;110620;1274;22088;-74
2023/09/22 02:09:43;;;;;;;7.40;3.90;;;;;;;15.64;87.08;95260.15;110563;1274;22103;-75
2023/09/22 02:12:11;;;;;;;9.80;3.70;;;;;;;15.59;87.56;95261.94;110632;1274;22134;-74
2023/09/22 02:14:40;;;;;;;6.80;3.60;;;;;;;15.62;87.53;95257.94;110641;1273;22161;-75
2023/09/22 02:17:09;;;;;;;10.30;4.60;;;;;;;15.56;88.11;95263.67;110778;1273;22196;-75
2023/09/22 02:19:38;;;;;;;7.80;3.50;;;;;;;15.57;88.23;95259.55;110580;1273;22909;-75
2023/09/22 02:22:06;;;;;;;9.20;4.20;;;;;;;15.58;88.26;95262.02;110609;1273;22308;-74
2023/09/22 02:24:35;;;;;;;7.80;4.00;;;;;;;15.60;88.05;95260.84;110586;1273;22766;-74
2023/09/22 02:27:04;;;;;;;8.00;4.10;;;;;;;15.64;88.55;95258.90;110580;1273;22152;-75
2023/09/22 02:29:44;;;;;;;5.90;3.50;;;;;;;15.71;88.28;95262.70;110595;1273;22589;-75
2023/09/22 02:32:12;;;;;;;7.50;3.80;;;;;;;15.77;88.07;95260.69;110601;1273;22205;-75
2023/09/22 02:34:48;;;;;;;9.10;3.90;;;;;;;15.77;88.02;95266.35;110751;1269;22226;-74
2023/09/22 02:37:16;;;;;;;10.80;3.80;;;;;;;15.77;88.33;95260.50;110752;1273;22417;-75
2023/09/22 02:39:48;;;;;;;6.20;3.20;;;;;;;15.74;88.03;95262.39;110605;1273;22184;-74
2023/09/22 02:42:17;;;;;;;8.40;3.50;;;;;;;15.78;88.19;95258.29;110636;1273;22879;-75
2023/09/22 02:44:45;;;;;;;7.60;3.40;;;;;;;15.83;88.26;95259.00;110561;1273;22228;-75
2023/09/22 02:47:14;;;;;;;5.60;3.40;;;;;;;15.87;88.15;95261.84;110571;1273;22315;-75
2023/09/22 02:49:43;;;;;;;6.70;3.70;;;;;;;15.84;87.55;95268.88;110565;1273;23083;-75
2023/09/22 02:52:12;;;;;;;6.30;3.50;;;;;;;15.83;87.98;95265.02;110564;1273;22147;-75
2023/09/22 02:54:50;;;;;;;10.50;3.90;;;;;;;15.80;87.85;95271.38;110763;1273;22293;-75
2023/09/22 02:57:19;;;;;;;7.80;4.10;;;;;;;15.77;88.14;95267.77;110577;1273;22941;-75
2023/09/22 02:59:53;;;;;;;9.10;3.90;;;;;;;15.80;88.40;95268.90;110752;1273;22415;-75
2023/09/22 03:02:27;;;;;;;10.40;3.60;;;;;;;15.77;88.45;95276.84;110608;1273;22146;-73
2023/09/22 03:04:56;;;;;;;9.70;4.00;;;;;;;15.76;88.65;95274.90;110720;1273;22850;-75
2023/09/22 03:07:24;;;;;;;10.30;5.20;;;;;;;15.77;88.27;95271.30;110573;1273;22126;-75
2023/09/22 03:09:53;;;;;;;16.40;4.50;;;;;;;15.79;88.63;95272.66;110586;1273;22180;-75
2023/09/22 03:12:21;;;;;;;9.60;3.50;;;;;;;15.85;88.69;95276.13;110740;1273;22189;-75
2023/09/22 03:14:50;;;;;;;7.70;3.70;;;;;;;15.86;88.29;95279.61;110592;1273;22130;-74
2023/09/22 03:17:18;;;;;;;10.90;4.60;;;;;;;15.83;88.01;95278.69;110473;1273;22191;-75
2023/09/22 03:19:49;;;;;;;6.60;3.50;;;;;;;15.80;88.47;95277.93;110551;1273;22892;-75
2023/09/22 03:22:17;;;;;;;5.80;3.60;;;;;;;15.80;88.11;95275.99;110619;1273;22112;-75
2023/09/22 03:24:46;;;;;;;8.60;3.60;;;;;;;15.75;88.07;95272.98;110581;1273;22155;-75
2023/09/22 03:27:15;;;;;;;7.40;4.00;;;;;;;15.72;88.28;95269.95;110585;1273;22338;-75
2023/09/22 03:29:43;;;;;;;8.20;3.80;;;;;;;15.78;88.72;95269.31;110606;1273;23043;-75
2023/09/22 03:32:18;;;;;;;7.60;3.90;;;;;;;15.75;88.52;95270.00;110747;1273;22095;-75
2023/09/22 03:34:48;;;;;;;10.10;3.70;;;;;;;15.79;89.00;95271.93;110520;1273;22316;-75
2023/09/22 03:37:18;;;;;;;6.30;3.80;;;;;;;15.78;88.08;95275.73;110628;1273;22115;-75
2023/09/22 03:39:52;;;;;;;8.60;3.90;;;;;;;15.74;88.45;95280.32;110555;1273;22246;-75
2023/09/22 03:42:21;;;;;;;9.70;3.70;;;;;;;15.73;88.34;95279.13;110551;1273;22156;-75
2023/09/22 03:44:49;;;;;;;8.60;3.40;;;;;;;15.70;88.26;95288.28;110631;1273;22965;-75
2023/09/22 03:47:18;;;;;;;4.70;3.40;;;;;;;15.69;88.04;95283.55;110723;1273;22158;-75
2023/09/22 03:49:46;;;;;;;5.90;3.50;;;;;;;15.70;88.44;95288.11;110537;1273;22290;-75
2023/09/22 03:52:18;;;;;;;10.70;3.40;;;;;;;15.69;88.25;95289.93;110725;1273;22129;-75
2023/09/22 03:54:47;;;;;;;7.30;3.40;;;;;;;15.61;88.01;95287.23;110725;1273;22205;-74
2023/09/22 03:57:16;;;;;;;9.40;3.60;;;;;;;15.58;88.45;95288.98;110545;1273;22139;-74
2023/09/22 03:59:49;;;;;;;8.70;3.40;;;;;;;15.61;88.83;95286.55;110545;1273;22666;-75
2023/09/22 04:02:18;;;;;;;8.70;3.20;;;;;;;15.58;88.33;95293.54;110541;1273;22370;-75
2023/09/22 04:04:49;;;;;;;7.20;3.20;;;;;;;15.52;88.05;95292.75;110477;1262;23126;-75
2023/09/22 04:07:31;;;;;;;;;;;;;;;;;;;;;
2023/09/22 04:10:00;;;;;;;7.20;2.90;;;;;;;15.40;87.91;95295.08;110745;1273;22138;-75
2023/09/22 04:12:29;;;;;;;6.60;3.80;;;;;;;15.31;88.20;95298.23;110581;1273;22130;-75
2023/09/22 04:15:17;;;;;;;10.10;3.50;;;;;;;15.32;88.62;95297.66;110578;1273;22223;-75
2023/09/22 04:17:46;;;;;;;7.50;3.10;;;;;;;15.28;88.53;95301.04;110746;1273;23062;-75
2023/09/22 04:20:28;;;;;;;9.60;3.10;;;;;;;15.17;88.18;95305.58;110550;1273;22144;-74
2023/09/22 04:22:58;;;;;;;8.90;3.20;;;;;;;15.09;88.40;95305.73;110594;1273;22126;-75
2023/09/22 04:25:34;;;;;;;7.70;3.50;;;;;;;15.02;88.45;95307.76;110542;1273;22226;-75
2023/09/22 04:28:09;;;;;;;10.20;4.40;;;;;;;15.06;89.45;95308.33;110630;1273;22138;-75
2023/09/22 04:30:38;;;;;;;7.50;3.20;;;;;;;15.07;89.27;95311.45;110620;1273;22179;-75
2023/09/22 04:33:10;;;;;;;6.60;3.00;;;;;;;15.03;88.74;95310.56;110602;1273;22135;-75
2023/09/22 04:35:42;;;;;;;4.40;2.90;;;;;;;14.96;88.61;95308.73;110743;1273;22144;-75
2023/09/22 04:38:14;;;;;;;5.90;3.30;;;;;;;14.88;88.87;95308.00;110747;1273;22133;-74
2023/09/22 04:40:47;;;;;;;9.00;3.60;;;;;;;14.85;89.04;95307.38;110539;1266;22183;-74
2023/09/22 04:43:15;;;;;;;5.60;3.30;;;;;;;14.88;89.37;95306.02;110472;1273;22385;-74
2023/09/22 04:45:45;;;;;;;8.90;3.80;;;;;;;14.92;89.72;95303.39;110463;1273;22190;-74
2023/09/22 04:48:16;;;;;;;9.20;3.50;;;;;;;14.95;89.38;95311.06;110712;1273;22164;-75
2023/09/22 04:51:14;;;;;;;5.70;2.80;;;;;;;14.91;89.22;95306.43;110741;1273;22855;-74
2023/09/22 04:53:43;;;;;;;6.80;3.50;;;;;;;14.89;89.08;95305.45;110676;1273;23174;-74
2023/09/22 04:56:14;;;;;;;11.70;3.30;;;;;;;14.87;89.29;95310.33;110650;1273;22180;-75
2023/09/22 04:58:56;;;;;;;9.00;3.30;;;;;;;14.90;89.20;95308.45;110633;1273;22244;-75
2023/09/22 05:01:31;;;;;;;6.90;3.30;;;;;;;14.89;89.40;95304.74;110580;1273;22994;-75
2023/09/22 05:03:59;;;;;;;9.60;3.70;;;;;;;14.98;89.68;95305.44;110543;1273;22176;-77
2023/09/22 05:06:27;;;;;;;9.10;3.70;;;;;;;14.99;88.87;95308.45;110714;1273;23164;-73
2023/09/22 05:08:56;;;;;;;6.80;3.20;;;;;;;14.98;89.03;95313.42;110747;1266;22581;-76
2023/09/22 05:11:25;;;;;;;5.50;3.00;;;;;;;15.00;88.97;95304.14;110693;1273;22200;-77
2023/09/22 05:13:57;;;;;;;6.10;3.00;;;;;;;15.06;89.13;95306.73;110623;1273;22224;-74
2023/09/22 05:16:26;;;;;;;4.50;3.20;;;;;;;15.05;88.57;95306.77;110584;1273;22255;-75
2023/09/22 05:18:55;;;;;;;9.30;3.70;;;;;;;15.07;89.25;95305.26;110589;1270;22249;-74
2023/09/22 05:21:24;;;;;;;7.30;3.80;;;;;;;15.19;89.73;95305.85;110607;1273;22204;-74
2023/09/22 05:23:52;;;;;;;10.20;4.40;;;;;;;15.28;89.35;95302.06;110747;1273;22202;-74
2023/09/22 05:26:20;;;;;;;6.30;3.90;;;;;;;15.32;89.06;95303.53;110705;1273;22334;-76
2023/09/22 05:28:50;;;;;;;11.60;4.30;;;;;;;15.42;89.23;95301.18;110595;1273;22169;-75
2023/09/22 05:31:19;;;;;;;7.40;4.00;;;;;;;15.51;89.11;95308.23;110612;1273;22382;-75
2023/09/22 05:33:48;;;;;;;10.30;4.50;;;;;;;15.60;89.08;95317.39;110757;1273;22199;-75
2023/09/22 05:36:16;;;;;;;6.40;4.10;;;;;;;15.73;89.15;95314.92;110707;1273;22247;-75
2023/09/22 05:38:44;;;;;;;5.40;3.60;;;;;;;15.85;88.79;95313.88;110708;1273;22219;-75
2023/09/22 05:41:14;;;;;;;9.00;4.30;;;;;;;15.87;88.02;95313.08;110476;1273;22335;-74
2023/09/22 05:43:56;;;;;;;9.20;3.90;;;;;;;15.94;88.66;95316.35;110357;1270;22973;-76
2023/09/22 05:46:24;;;;;;;8.60;3.70;;;;;;;16.01;87.75;95320.29;110555;1274;22265;-74
2023/09/22 05:48:57;;;;;;;9.50;3.90;;;;;;;16.02;88.04;95323.61;110495;1274;22124;-76
2023/09/22 05:51:26;;;;;;;11.20;4.20;;;;;;;16.16;88.43;95321.74;110540;1274;23028;-75
2023/09/22 05:53:54;;;;;;;6.70;3.80;;;;;;;16.28;88.02;95321.56;110582;1274;22141;-74
2023/09/22 05:56:23;;;;;;;12.30;5.30;;;;;;;16.40;88.17;95318.52;110571;1274;22894;-74
2023/09/22 05:58:51;;;;;;;6.30;3.80;;;;;;;16.56;88.39;95317.05;110594;1274;22184;-75
2023/09/22 06:01:19;;;;;;;10.60;4.00;;;;;;;16.73;88.28;95312.04;110406;1274;22886;-77
2023/09/22 06:03:48;;;;;;;8.20;4.90;;;;;;;16.87;87.62;95313.02;110543;1263;22228;-76
2023/09/22 06:06:16;;;;;;;10.00;5.40;;;;;;;16.92;86.54;95313.64;110562;1275;22211;-75
2023/09/22 06:08:45;;;;;;;10.10;5.40;;;;;;;16.95;86.72;95318.45;110564;1275;22179;-75
2023/09/22 06:11:14;;;;;;;11.10;5.00;;;;;;;17.04;86.25;95324.81;110583;1274;22152;-75
2023/09/22 06:13:42;;;;;;;7.60;5.80;;;;;;;17.09;85.46;95325.61;110511;1274;22208;-75
2023/09/22 06:16:11;;;;;;;10.60;6.00;;;;;;;17.18;85.74;95323.92;110588;1274;22207;-75
2023/09/22 06:18:40;;;;;;;6.90;5.80;;;;;;;17.27;85.33;95322.77;110582;1275;22223;-75
2023/09/22 06:21:10;;;;;;;14.20;6.20;;;;;;;17.32;84.99;95324.30;110586;1274;22186;-73
2023/09/22 06:23:38;;;;;;;8.20;5.70;;;;;;;17.39;85.02;95326.10;110579;1275;22355;-75
2023/09/22 06:26:10;;;;;;;11.00;5.80;;;;;;;17.48;84.74;95329.02;110518;1274;22860;-74
2023/09/22 06:28:39;;;;;;;10.40;5.60;;;;;;;17.57;84.31;95338.90;110474;1274;22203;-74
2023/09/22 06:31:07;;;;;;;8.40;5.70;;;;;;;17.65;84.12;95337.42;110559;1274;22204;-76
2023/09/22 06:33:36;;;;;;;12.40;6.20;;;;;;;17.72;83.96;95340.09;110485;1262;22404;-73
2023/09/22 06:38:50;;;;;;;9.30;6.00;;;;;;;17.90;83.82;95339.90;103922;1305;545017;-83
2023/09/22 06:42:00;;;;;;;;;;;;;;;;;;;;;
2023/09/22 06:45:01;;;;;;;7.70;6.30;;;;;;;18.11;83.27;95343.27;107055;1276;22519;-78
2023/09/22 06:48:06;;;;;;;8.50;4.80;;;;;;;18.23;83.10;95340.73;108384;1276;22705;-77
2023/09/22 06:51:00;;;;;;;10.00;4.40;;;;;;;18.36;82.63;95335.21;105509;1276;5491472;-76
2023/09/22 06:54:21;;;;;;;;;;;;;;;;;;;;;
2023/09/22 06:57:18;;;;;;;9.20;4.60;;;;;;;18.64;81.50;95332.65;107036;1273;24256;-79
2023/09/22 07:00:22;;;;;;;9.00;4.30;;;;;;;18.81;81.85;95332.98;107181;1270;22518;-81
2023/09/22 07:03:23;;;;;;;10.90;5.10;;;;;;;19.00;80.77;95333.02;107141;1273;22651;-76
2023/09/22 07:06:24;;;;;;;9.20;4.10;;;;;;;19.15;79.64;95334.14;107037;1267;22513;-82
2023/09/22 07:09:13;;;;;;;8.70;3.70;;;;;;;19.32;80.00;95334.96;106876;1275;22642;-79
2023/09/22 07:15:01;;;;;;;11.00;4.80;;;;;;;19.57;77.28;95338.86;106681;1275;22518;-85
2023/09/22 07:18:26;;;;;;;10.50;5.10;;;;;;;19.64;77.85;95344.66;107040;1275;24247;-77
2023/09/22 07:21:00;;;;;;;11.30;4.60;;;;;;;19.76;76.86;95342.26;106791;1275;24394;-82
2023/09/22 07:23:44;;;;;;;14.40;5.20;;;;;;;19.87;76.90;95348.58;107031;1275;25089;-85
2023/09/22 07:26:42;;;;;;;12.40;5.40;;;;;;;20.03;74.94;95344.92;107120;1275;24977;-76
2023/09/22 07:29:10;;;;;;;13.90;5.70;;;;;;;20.18;74.44;95347.56;110530;1275;22273;-76
2023/09/22 07:31:43;;;;;;;9.20;5.10;;;;;;;20.32;75.13;95344.25;106797;1275;22533;-83
2023/09/22 07:35:07;;;;;;;9.50;4.90;;;;;;;20.49;74.98;95340.55;106770;1275;22788;-79
2023/09/22 07:37:45;;;;;;;12.10;5.40;;;;;;;20.67;73.54;95334.61;106814;1275;22654;-84
2023/09/22 07:40:37;;;;;;;;;;;;;;;;;;;;;
2023/09/22 07:43:29;;;;;;;9.20;5.20;;;;;;;20.88;71.51;95329.00;106832;1275;24744;-84
2023/09/22 07:46:06;;;;;;;13.10;5.20;;;;;;;21.02;71.76;95330.27;106835;1275;25502;-84
2023/09/22 07:49:17;;;;;;;11.70;4.80;;;;;;;21.17;71.53;95328.21;106987;1275;24337;-85
2023/09/22 07:52:09;;;;;;;14.70;5.60;;;;;;;21.29;71.26;95326.55;106820;1275;24436;-82
2023/09/22 07:54:53;;;;;;;10.40;5.60;;;;;;;21.39;70.61;95333.27;106626;1275;22698;-84
2023/09/22 07:57:29;;;;;;;6.40;4.60;;;;;;;21.51;69.46;95336.56;106795;1275;24238;-83
2023/09/22 08:00:16;;;;;;;9.20;5.30;;;;;;;21.63;69.41;95334.05;106856;1275;22780;-81
2023/09/22 08:02:56;;;;;;;12.90;5.40;;;;;;;21.73;69.77;95334.43;106774;1275;25366;-82
2023/09/22 08:05:31;;;;;;;11.60;5.00;;;;;;;21.82;69.20;95333.45;106829;1257;22523;-82
2023/09/22 08:08:12;;;;;;;13.20;5.10;;;;;;;21.90;66.86;95331.84;106680;1275;24377;-82
2023/09/22 08:10:58;;;;;;;;;;;;;;;;;;;;;
2023/09/22 08:13:47;;;;;;;;;;;;;;;;;;;;;
2023/09/22 08:16:41;;;;;;;15.50;5.20;;;;;;;22.25;66.34;95330.05;106875;1275;25473;-83
2023/09/22 08:19:17;;;;;;;8.60;5.30;;;;;;;22.31;65.94;95325.32;107006;1275;22638;-85
2023/09/22 08:21:49;;;;;;;9.10;5.50;;;;;;;22.46;65.55;95327.01;106790;1275;25462;-82
2023/09/22 08:24:39;;;;;;;8.00;5.10;;;;;;;22.58;65.44;95326.83;106801;1275;25488;-82
2023/09/22 08:27:09;;;;;;;9.90;5.00;;;;;;;22.75;65.83;95326.56;106861;1275;22642;-81
2023/09/22 08:29:41;;;;;;;11.20;5.30;;;;;;;22.94;65.18;95325.41;106788;1275;24041;-80
2023/09/22 08:32:33;;;;;;;9.90;5.10;;;;;;;22.92;63.16;95324.09;106708;1275;22630;-83
2023/09/22 08:35:05;;;;;;;11.30;5.40;;;;;;;22.81;63.82;95325.77;106805;1275;24216;-78
2023/09/22 08:37:43;;;;;;;10.90;5.40;;;;;;;22.88;64.12;95325.05;106830;1275;22523;-84
2023/09/22 08:40:28;;;;;;;6.50;5.10;;;;;;;23.03;64.29;95321.70;106851;1275;22520;-84
2023/09/22 08:43:02;;;;;;;8.80;5.00;;;;;;;23.27;62.50;95320.66;107068;1275;22527;-79
2023/09/22 08:45:39;;;;;;;12.00;5.10;;;;;;;23.45;62.41;95322.54;106794;1275;25335;-80
2023/09/22 08:48:13;;;;;;;8.80;5.20;;;;;;;23.72;62.42;95321.16;106848;1275;25284;-84
2023/09/22 08:50:45;;;;;;;11.90;5.10;;;;;;;24.01;60.65;95320.58;106751;1275;23901;-80
2023/09/22 08:53:14;;;;;;;8.30;4.70;;;;;;;24.26;59.54;95321.74;106657;1275;25523;-79
2023/09/22 08:55:43;;;;;;;7.70;4.80;;;;;;;24.33;58.89;95317.58;106697;1275;24356;-77
2023/09/22 08:58:18;;;;;;;12.50;5.20;;;;;;;24.29;59.46;95319.73;106824;1275;24231;-79
2023/09/22 09:00:51;;;;;;;9.50;5.50;;;;;;;24.62;60.35;95319.32;106774;1275;24336;-83
2023/09/22 09:03:25;;;;;;;8.90;5.10;;;;;;;24.92;58.78;95319.81;106537;1275;24205;-80
2023/09/22 09:06:17;;;;;;;12.10;5.70;;;;;;;25.16;57.18;95322.23;106703;1275;22528;-82
2023/09/22 09:09:12;;;;;;;11.00;5.60;;;;;;;25.39;55.11;95323.30;106814;1275;24260;-85
2023/09/22 09:12:01;;;;;;;11.20;5.30;;;;;;;25.47;56.58;95318.11;106768;1275;22790;-85
2023/09/22 09:14:29;;;;;;;12.00;5.00;;;;;;;25.43;57.49;95318.42;106874;1253;22553;-85
2023/09/22 09:17:16;;;;;;;9.80;5.40;;;;;;;25.32;57.22;95318.98;106683;1275;24201;-86
2023/09/22 09:19:54;;;;;;;10.90;5.70;;;;;;;25.14;57.62;95324.02;106774;1275;22528;-85
2023/09/22 09:22:32;;;;;;;16.90;6.10;;;;;;;24.94;58.18;95323.84;106892;1275;24250;-80
2023/09/22 09:25:02;;;;;;;9.10;5.20;;;;;;;24.78;58.01;95329.35;106892;1275;22562;-86
2023/09/22 09:27:34;;;;;;;10.10;4.70;;;;;;;24.68;56.73;95329.11;106770;1275;25558;-82
2023/09/22 09:30:16;;;;;;;9.60;5.00;;;;;;;24.58;57.10;95327.00;106812;1275;22900;-78
2023/09/22 09:32:49;;;;;;;10.60;5.60;;;;;;;24.52;57.42;95327.69;106778;1275;22527;-85
2023/09/22 09:35:31;;;;;;;12.40;4.90;;;;;;;24.44;58.22;95324.48;107036;1275;23525;-85
2023/09/22 09:38:22;;;;;;;11.50;5.30;;;;;;;24.29;58.65;95324.59;106788;1275;22639;-85
2023/09/22 09:40:56;;;;;;;11.10;5.00;;;;;;;24.19;59.31;95329.48;106688;1275;22527;-85
2023/09/22 09:43:27;;;;;;;10.10;5.40;;;;;;;24.09;59.42;95331.50;106854;1275;22524;-82
2023/09/22 09:46:03;;;;;;;9.10;6.40;;;;;;;23.95;58.79;95325.88;106915;1275;24387;-82
2023/09/22 09:48:46;;;;;;;19.90;8.70;;;;;;;23.79;60.55;95322.41;106837;1275;22662;-83
2023/09/22 09:51:20;;;;;;;20.90;9.00;;;;;;;23.68;60.84;95319.64;106992;1254;25619;-78
2023/09/22 09:53:58;;;;;;;16.70;6.50;;;;;;;23.62;61.66;95326.36;106970;1275;24393;-80
2023/09/22 09:56:41;;;;;;;11.00;6.40;;;;;;;23.58;63.23;95330.64;106828;1275;25315;-82
2023/09/22 09:59:22;;;;;;;18.50;7.00;;;;;;;23.49;64.60;95329.14;106636;1275;22524;-84
2023/09/22 10:01:54;;;;;;;13.70;7.30;;;;;;;23.39;65.07;95328.45;106789;1275;23278;-80
2023/09/22 10:04:24;;;;;;;;;;;;;;;23.33;64.92;95330.28;106882;1275;22491;-78
2023/09/22 10:07:02;;;;;;;14.20;7.40;;;;;;;23.36;65.14;95328.27;106800;1275;22618;-85
2023/09/22 10:09:36;;;;;;;12.80;6.20;;;;;;;23.55;64.83;95325.81;106718;1275;22524;-84
2023/09/22 10:12:08;;;;;;;13.10;6.30;;;;;;;23.82;64.69;95330.42;106594;1263;22541;-82
2023/09/22 10:15:07;;;;;;;12.90;5.50;;;;;;;24.28;63.43;95328.55;106562;1275;22853;-86
2023/09/22 10:17:54;;;;;;;11.20;5.40;;;;;;;24.48;61.09;95323.31;106751;1275;22536;-78
2023/09/22 10:20:44;;;;;;;12.40;5.60;;;;;;;24.63;60.65;95323.40;106778;1275;22545;-81
2023/09/22 10:23:29;;;;;;;13.80;5.70;;;;;;;24.72;60.00;95321.23;106865;1275;22539;-86
2023/09/22 10:26:19;;;;;;;10.00;5.60;;;;;;;24.88;60.21;95320.30;106672;1275;22576;-80
2023/09/22 10:28:51;;;;;;;8.40;5.40;;;;;;;25.09;60.28;95316.66;106652;1275;23897;-84
2023/09/22 10:31:19;;;;;;;11.30;5.70;;;;;;;25.25;59.97;95317.14;106841;1275;22604;-80
2023/09/22 10:33:57;;;;;;;8.40;5.40;;;;;;;25.43;59.60;95320.08;106650;1275;22530;-87
2023/09/22 10:36:47;;;;;;;11.20;5.50;;;;;;;25.50;58.21;95319.14;106868;1275;24211;-80
2023/09/22 10:39:36;;;;;;;8.10;5.10;;;;;;;25.18;57.92;95315.96;106930;1275;25293;-78
2023/09/22 10:42:05;;;;;;;10.60;5.40;;;;;;;24.82;58.76;95315.76;106728;1275;22780;-80
2023/09/22 10:44:59;;;;;;;6.30;5.30;;;;;;;24.57;59.31;95314.85;106824;1275;22536;-82
2023/09/22 10:47:45;;;;;;;8.40;5.30;;;;;;;24.36;60.69;95310.50;106888;1275;25343;-79
2023/09/22 10:50:24;;;;;;;14.10;5.50;;;;;;;24.61;60.97;95307.69;106686;1275;22527;-86
2023/09/22 10:53:02;;;;;;;9.50;5.20;;;;;;;25.16;59.96;95300.96;106776;1275;24529;-84
2023/09/22 10:55:40;;;;;;;10.60;5.50;;;;;;;25.82;58.60;95293.06;106684;1275;25353;-83
2023/09/22 10:58:10;;;;;;;10.40;5.60;;;;;;;26.41;57.15;95284.48;106625;1254;25668;-83
2023/09/22 11:00:44;;;;;;;10.20;5.80;;;;;;;26.91;55.73;95279.42;106761;1275;25350;-78
2023/09/22 11:03:14;;;;;;;12.70;6.00;;;;;;;27.34;53.45;95272.10;106695;1275;24284;-86
2023/09/22 11:05:46;;;;;;;9.90;5.20;;;;;;;27.77;53.09;95271.08;106791;1275;24629;-80
2023/09/22 11:08:17;;;;;;;10.90;5.70;;;;;;;28.19;51.57;95273.23;106770;1275;25359;-81
2023/09/22 11:10:51;;;;;;;11.50;5.50;;;;;;;28.62;50.39;95274.06;106692;1275;22516;-82
2023/09/22 11:13:21;;;;;;;10.20;4.80;;;;;;;29.05;49.68;95274.30;106633;1275;22667;-81
2023/09/22 11:15:57;;;;;;;9.50;5.00;;;;;;;29.45;48.16;95268.39;106836;1275;25424;-80
2023/09/22 11:18:33;;;;;;;10.40;4.40;;;;;;;29.70;46.16;95267.52;106776;1275;22523;-82
2023/09/22 11:21:05;;;;;;;8.30;4.30;;;;;;;29.93;46.30;95266.83;106772;1275;22522;-86
2023/09/22 11:23:41;;;;;;;8.00;4.70;;;;;;;30.25;46.18;95263.94;106853;1275;25389;-80
2023/09/22 11:26:12;;;;;;;11.60;4.60;;;;;;;30.51;45.63;95257.63;106767;1275;22516;-82
2023/09/22 11:28:40;;;;;;;12.60;4.40;;;;;;;30.92;45.50;95255.60;106791;1275;24272;-80
2023/09/22 11:31:14;;;;;;;7.40;4.00;;;;;;;31.23;43.22;95250.85;106772;1272;25628;-78
2023/09/22 11:33:44;;;;;;;10.80;4.00;;;;;;;31.45;42.73;95254.67;106786;1275;25484;-82
2023/09/22 11:36:13;;;;;;;10.40;4.30;;;;;;;31.46;41.45;95252.27;106811;1275;25374;-79
2023/09/22 11:38:52;;;;;;;7.90;3.80;;;;;;;31.50;41.93;95254.90;106818;1275;22780;-86
2023/09/22 11:41:22;;;;;;;9.60;3.80;;;;;;;31.57;41.39;95258.19;106798;1275;24255;-83
2023/09/22 11:43:52;;;;;;;10.20;3.90;;;;;;;31.86;41.03;95255.88;106852;1275;24274;-79
2023/09/22 11:46:25;;;;;;;11.50;4.30;;;;;;;32.16;40.69;95259.40;106771;1275;22533;-80
2023/09/22 11:49:05;;;;;;;8.00;3.80;;;;;;;32.23;39.73;95258.95;106779;1275;22516;-79
2023/09/22 11:51:40;;;;;;;14.20;5.40;;;;;;;32.23;39.58;95264.80;106722;1275;22638;-79
2023/09/22 11:54:10;;;;;;;12.00;5.30;;;;;;;32.11;40.64;95269.93;106787;1275;24204;-77
2023/09/22 11:56:40;;;;;;;10.20;4.60;;;;;;;31.67;41.07;95271.75;106790;1275;26000;-83
2023/09/22 11:59:09;;;;;;;8.40;4.50;;;;;;;31.02;41.63;95274.91;106790;1275;24254;-79
2023/09/22 12:01:38;;;;;;;10.80;4.60;;;;;;;30.38;43.02;95275.34;106623;1275;22522;-79
2023/09/22 12:04:09;;;;;;;6.80;4.10;;;;;;;29.82;43.49;95277.95;106929;1275;22648;-79
2023/09/22 12:06:42;;;;;;;10.80;4.50;;;;;;;29.30;44.87;95280.58;106684;1275;24282;-78
2023/09/22 12:09:12;;;;;;;9.80;4.60;;;;;;;28.75;46.69;95280.90;106771;1275;22517;-86
2023/09/22 12:11:42;;;;;;;8.70;4.70;;;;;;;28.38;48.26;95281.16;106962;1275;22522;-86